sensor_id;sensor_type;location;lat;lon;timestamp;temperature;humidity
30001;DHT22;16845;48.670;9.000;2023-02-28T00:01:26;-1.60;99.90
30001;DHT22;16845;48.670;9.000;2023-02-28T00:03:54;-1.60;99.90
30001;DHT22;16845;48.670;9.000;2023-02-28T00:06:23;-1.60;99.90
30001;DHT22;16845;48.670;9.000;2023-02-28T00:08:51;-1.60;99.90
30001;DHT22;16845;48.670;9.000;2023-02-28T00:11:19;-1.60;99.90
30001;DHT22;16845;48.670;9.000;2023-02-28T00:13:48;-1.70;99.90
30001;DHT22;16845;48.670;9.000;2023-02-28T00:16:20;-1.70;99.90
30001;DHT22;16845;48.670;9.000;2023-02-28T00:18:48;-1.70;99.90
30001;DHT22;16845;48.670;9.000;2023-02-28T00:21:18;-1.70;99.90
30001;DHT22;16845;48.670;9.000;2023-02-28T00:23:46;-1.70;99.90
30001;DHT22;16845;48.670;9.000;2023-02-28T00:26:14;-1.70;99.90
30001;DHT22;16845;48.670;9.000;2023-02-28T00:28:42;-1.80;99.90
30001;DHT22;16845;48.670;9.000;2023-02-28T00:31:10;-1.80;99.90
30001;DHT22;16845;48.670;9.000;2023-02-28T00:33:39;-1.80;99.90
30001;DHT22;16845;48.670;9.000;2023-02-28T00:36:10;-1.80;99.90
30001;DHT22;16845;48.670;9.000;2023-02-28T00:38:40;-1.80;99.90
30001;DHT22;16845;48.670;9.000;2023-02-28T00:41:08;-1.90;99.90
30001;DHT22;16845;48.670;9.000;2023-02-28T00:43:37;-1.90;99.90
30001;DHT22;16845;48.670;9.000;2023-02-28T00:46:06;-1.90;99.90
30001;DHT22;16845;48.670;9.000;2023-02-28T00:48:34;-2.00;99.90
30001;DHT22;16845;48.670;9.000;2023-02-28T00:51:04;-2.00;99.90
30001;DHT22;16845;48.670;9.000;2023-02-28T00:53:32;-2.00;99.90
30001;DHT22;16845;48.670;9.000;2023-02-28T00:56:00;-2.00;99.90
30001;DHT22;16845;48.670;9.000;2023-02-28T00:58:28;-2.00;99.90
30001;DHT22;16845;48.670;9.000;2023-02-28T01:00:57;-2.00;99.90
30001;DHT22;16845;48.670;9.000;2023-02-28T01:03:24;-2.10;99.90
30001;DHT22;16845;48.670;9.000;2023-02-28T01:05:52;-2.20;99.90
30001;DHT22;16845;48.670;9.000;2023-02-28T01:08:22;-2.10;99.90
30001;DHT22;16845;48.670;9.000;2023-02-28T01:10:50;-2.10;99.90
30001;DHT22;16845;48.670;9.000;2023-02-28T01:13:18;-2.10;99.90
30001;DHT22;16845;48.670;9.000;2023-02-28T01:15:50;-2.10;99.90
30001;DHT22;16845;48.670;9.000;2023-02-28T01:18:19;-2.10;99.90
30001;DHT22;16845;48.670;9.000;2023-02-28T01:20:47;-2.10;99.90
30001;DHT22;16845;48.670;9.000;2023-02-28T01:23:15;-2.20;99.90
30001;DHT22;16845;48.670;9.000;2023-02-28T01:25:44;-2.20;99.90
30001;DHT22;16845;48.670;9.000;2023-02-28T01:28:12;-2.10;99.90
30001;DHT22;16845;48.670;9.000;2023-02-28T01:30:40;-2.10;99.90
30001;DHT22;16845;48.670;9.000;2023-02-28T01:33:08;-2.10;99.90
30001;DHT22;16845;48.670;9.000;2023-02-28T01:35:36;-2.10;99.90
30001;DHT22;16845;48.670;9.000;2023-02-28T01:38:04;-2.10;99.90
30001;DHT22;16845;48.670;9.000;2023-02-28T01:40:49;-2.20;99.90
30001;DHT22;16845;48.670;9.000;2023-02-28T01:43:21;-2.20;99.90
30001;DHT22;16845;48.670;9.000;2023-02-28T01:45:50;-2.20;99.90
30001;DHT22;16845;48.670;9.000;2023-02-28T01:48:19;-2.20;99.90
30001;DHT22;16845;48.670;9.000;2023-02-28T01:50:49;-2.20;99.90
30001;DHT22;16845;48.670;9.000;2023-02-28T01:53:19;-2.20;99.90
30001;DHT22;16845;48.670;9.000;2023-02-28T01:55:52;-2.20;99.90
30001;DHT22;16845;48.670;9.000;2023-02-28T01:58:20;-2.20;99.90
30001;DHT22;16845;48.670;9.000;2023-02-28T02:00:49;-2.20;99.90
30001;DHT22;16845;48.670;9.000;2023-02-28T02:03:19;-2.30;99.90
30001;DHT22;16845;48.670;9.000;2023-02-28T02:05:48;-2.30;99.90
30001;DHT22;16845;48.670;9.000;2023-02-28T02:08:17;-2.30;99.90
30001;DHT22;16845;48.670;9.000;2023-02-28T02:10:48;-2.30;99.90
30001;DHT22;16845;48.670;9.000;2023-02-28T02:13:38;-2.40;99.90
30001;DHT22;16845;48.670;9.000;2023-02-28T02:16:23;-2.40;99.90
30001;DHT22;16845;48.670;9.000;2023-02-28T02:18:54;-2.30;99.90
30001;DHT22;16845;48.670;9.000;2023-02-28T02:21:49;-2.30;99.90
30001;DHT22;16845;48.670;9.000;2023-02-28T02:24:54;-2.30;99.90
30001;DHT22;16845;48.670;9.000;2023-02-28T02:27:39;-2.40;99.90
30001;DHT22;16845;48.670;9.000;2023-02-28T02:30:33;-2.30;99.90
30001;DHT22;16845;48.670;9.000;2023-02-28T02:33:41;-2.30;99.90
30001;DHT22;16845;48.670;9.000;2023-02-28T02:36:18;-2.40;99.90
30001;DHT22;16845;48.670;9.000;2023-02-28T02:38:51;-2.40;99.90
30001;DHT22;16845;48.670;9.000;2023-02-28T02:41:24;-2.40;99.90
30001;DHT22;16845;48.670;9.000;2023-02-28T02:44:01;-2.40;99.90
30001;DHT22;16845;48.670;9.000;2023-02-28T02:46:33;-2.30;99.90
30001;DHT22;16845;48.670;9.000;2023-02-28T02:49:05;-2.30;99.90
30001;DHT22;16845;48.670;9.000;2023-02-28T02:51:35;-2.30;99.90
30001;DHT22;16845;48.670;9.000;2023-02-28T02:54:08;-2.20;99.90
30001;DHT22;16845;48.670;9.000;2023-02-28T02:56:39;-2.20;99.90
30001;DHT22;16845;48.670;9.000;2023-02-28T02:59:12;-2.10;99.90
30001;DHT22;16845;48.670;9.000;2023-02-28T03:01:41;-2.10;99.90
30001;DHT22;16845;48.670;9.000;2023-02-28T03:04:11;-2.10;99.90
30001;DHT22;16845;48.670;9.000;2023-02-28T03:06:43;-2.10;99.90
30001;DHT22;16845;48.670;9.000;2023-02-28T03:09:11;-2.10;99.90
30001;DHT22;16845;48.670;9.000;2023-02-28T03:11:40;-2.10;99.90
30001;DHT22;16845;48.670;9.000;2023-02-28T03:14:23;-2.10;99.90
30001;DHT22;16845;48.670;9.000;2023-02-28T03:17:13;-2.00;99.90
30001;DHT22;16845;48.670;9.000;2023-02-28T03:19:50;-2.00;99.90
30001;DHT22;16845;48.670;9.000;2023-02-28T03:22:40;-2.00;99.90
30001;DHT22;16845;48.670;9.000;2023-02-28T03:25:15;-2.00;99.90
30001;DHT22;16845;48.670;9.000;2023-02-28T03:27:53;-2.00;99.90
30001;DHT22;16845;48.670;9.000;2023-02-28T03:30:26;-2.00;99.90
30001;DHT22;16845;48.670;9.000;2023-02-28T03:32:59;-2.00;99.90
30001;DHT22;16845;48.670;9.000;2023-02-28T03:35:34;-2.00;99.90
30001;DHT22;16845;48.670;9.000;2023-02-28T03:38:08;-2.00;99.90
30001;DHT22;16845;48.670;9.000;2023-02-28T03:40:44;-2.00;99.90
30001;DHT22;16845;48.670;9.000;2023-02-28T03:43:19;-2.00;99.90
30001;DHT22;16845;48.670;9.000;2023-02-28T03:45:50;-2.00;99.90
30001;DHT22;16845;48.670;9.000;2023-02-28T03:48:22;-2.00;99.90
30001;DHT22;16845;48.670;9.000;2023-02-28T03:50:54;-2.00;99.90
30001;DHT22;16845;48.670;9.000;2023-02-28T03:53:27;-2.00;99.90
30001;DHT22;16845;48.670;9.000;2023-02-28T03:55:59;-1.90;99.90
30001;DHT22;16845;48.670;9.000;2023-02-28T03:58:30;-1.80;99.90
30001;DHT22;16845;48.670;9.000;2023-02-28T04:01:04;-1.80;99.90
30001;DHT22;16845;48.670;9.000;2023-02-28T04:03:37;-1.80;99.90
30001;DHT22;16845;48.670;9.000;2023-02-28T04:06:08;-1.80;99.90
30001;DHT22;16845;48.670;9.000;2023-02-28T04:08:41;-1.80;99.90
30001;DHT22;16845;48.670;9.000;2023-02-28T04:11:18;-1.80;99.90
30001;DHT22;16845;48.670;9.000;2023-02-28T04:13:47;-1.80;99.90
30001;DHT22;16845;48.670;9.000;2023-02-28T04:16:15;-1.80;99.90
30001;DHT22;16845;48.670;9.000;2023-02-28T04:18:59;-1.90;99.90
30001;DHT22;16845;48.670;9.000;2023-02-28T04:21:29;-1.80;99.90
30001;DHT22;16845;48.670;9.000;2023-02-28T04:23:59;-1.70;99.90
30001;DHT22;16845;48.670;9.000;2023-02-28T04:26:28;-1.80;99.90
30001;DHT22;16845;48.670;9.000;2023-02-28T04:28:57;-1.80;99.90
30001;DHT22;16845;48.670;9.000;2023-02-28T04:31:26;-1.80;99.90
30001;DHT22;16845;48.670;9.000;2023-02-28T04:33:55;-1.80;99.90
30001;DHT22;16845;48.670;9.000;2023-02-28T04:36:23;-1.80;99.90
30001;DHT22;16845;48.670;9.000;2023-02-28T04:38:51;-1.90;99.90
30001;DHT22;16845;48.670;9.000;2023-02-28T04:41:21;-1.80;99.90
30001;DHT22;16845;48.670;9.000;2023-02-28T04:43:50;-1.80;99.90
30001;DHT22;16845;48.670;9.000;2023-02-28T04:46:19;-1.70;99.90
30001;DHT22;16845;48.670;9.000;2023-02-28T04:48:47;-1.70;99.90
30001;DHT22;16845;48.670;9.000;2023-02-28T04:51:17;-1.80;99.90
30001;DHT22;16845;48.670;9.000;2023-02-28T04:53:47;-1.70;99.90
30001;DHT22;16845;48.670;9.000;2023-02-28T04:56:17;-1.60;99.90
30001;DHT22;16845;48.670;9.000;2023-02-28T04:58:46;-1.70;99.90
30001;DHT22;16845;48.670;9.000;2023-02-28T05:01:18;-1.70;99.90
30001;DHT22;16845;48.670;9.000;2023-02-28T05:03:46;-1.70;99.90
30001;DHT22;16845;48.670;9.000;2023-02-28T05:06:15;-1.70;99.90
30001;DHT22;16845;48.670;9.000;2023-02-28T05:08:43;-1.70;99.90
30001;DHT22;16845;48.670;9.000;2023-02-28T05:11:17;-1.60;99.90
30001;DHT22;16845;48.670;9.000;2023-02-28T05:13:47;-1.60;99.90
30001;DHT22;16845;48.670;9.000;2023-02-28T05:16:16;-1.60;99.90
30001;DHT22;16845;48.670;9.000;2023-02-28T05:18:44;-1.60;99.90
30001;DHT22;16845;48.670;9.000;2023-02-28T05:21:24;-1.60;99.90
30001;DHT22;16845;48.670;9.000;2023-02-28T05:23:53;-1.60;99.90
30001;DHT22;16845;48.670;9.000;2023-02-28T05:26:21;-1.60;99.90
30001;DHT22;16845;48.670;9.000;2023-02-28T05:28:51;-1.60;99.90
30001;DHT22;16845;48.670;9.000;2023-02-28T05:31:19;-1.60;99.90
30001;DHT22;16845;48.670;9.000;2023-02-28T05:33:47;-1.60;99.90
30001;DHT22;16845;48.670;9.000;2023-02-28T05:36:15;-1.60;99.90
30001;DHT22;16845;48.670;9.000;2023-02-28T05:38:43;-1.60;99.90
30001;DHT22;16845;48.670;9.000;2023-02-28T05:41:13;-1.60;99.90
30001;DHT22;16845;48.670;9.000;2023-02-28T05:43:41;-1.60;99.90
30001;DHT22;16845;48.670;9.000;2023-02-28T05:46:11;-1.60;99.90
30001;DHT22;16845;48.670;9.000;2023-02-28T05:48:40;-1.70;99.90
30001;DHT22;16845;48.670;9.000;2023-02-28T05:51:09;-1.60;99.90
30001;DHT22;16845;48.670;9.000;2023-02-28T05:53:37;-1.60;99.90
30001;DHT22;16845;48.670;9.000;2023-02-28T05:56:05;-1.60;99.90
30001;DHT22;16845;48.670;9.000;2023-02-28T05:58:33;-1.60;99.90
30001;DHT22;16845;48.670;9.000;2023-02-28T06:01:21;-1.60;99.90
30001;DHT22;16845;48.670;9.000;2023-02-28T06:03:49;-1.60;99.90
30001;DHT22;16845;48.670;9.000;2023-02-28T06:06:17;-1.60;99.90
30001;DHT22;16845;48.670;9.000;2023-02-28T06:08:45;-1.60;99.90
30001;DHT22;16845;48.670;9.000;2023-02-28T06:11:13;-1.60;99.90
30001;DHT22;16845;48.670;9.000;2023-02-28T06:13:41;-1.60;99.90
30001;DHT22;16845;48.670;9.000;2023-02-28T06:16:10;-1.60;99.90
30001;DHT22;16845;48.670;9.000;2023-02-28T06:18:40;-1.60;99.90
30001;DHT22;16845;48.670;9.000;2023-02-28T06:21:08;-1.60;99.90
30001;DHT22;16845;48.670;9.000;2023-02-28T06:23:36;-1.70;99.90
30001;DHT22;16845;48.670;9.000;2023-02-28T06:26:04;-1.70;99.90
30001;DHT22;16845;48.670;9.000;2023-02-28T06:28:32;-1.70;99.90
30001;DHT22;16845;48.670;9.000;2023-02-28T06:31:06;-1.60;99.90
30001;DHT22;16845;48.670;9.000;2023-02-28T06:33:34;-1.60;99.90
30001;DHT22;16845;48.670;9.000;2023-02-28T06:36:05;-1.50;99.90
30001;DHT22;16845;48.670;9.000;2023-02-28T06:38:33;-1.50;99.90
30001;DHT22;16845;48.670;9.000;2023-02-28T06:41:02;-1.40;99.90
30001;DHT22;16845;48.670;9.000;2023-02-28T06:43:33;-1.40;99.90
30001;DHT22;16845;48.670;9.000;2023-02-28T06:46:05;-1.30;99.90
30001;DHT22;16845;48.670;9.000;2023-02-28T06:48:33;-1.20;99.90
30001;DHT22;16845;48.670;9.000;2023-02-28T06:51:05;-1.20;99.90
30001;DHT22;16845;48.670;9.000;2023-02-28T06:53:33;-1.20;99.90
30001;DHT22;16845;48.670;9.000;2023-02-28T06:56:04;-1.20;99.90
30001;DHT22;16845;48.670;9.000;2023-02-28T06:58:33;-1.20;99.90
30001;DHT22;16845;48.670;9.000;2023-02-28T07:01:01;-1.30;99.90
30001;DHT22;16845;48.670;9.000;2023-02-28T07:03:30;-1.30;99.90
30001;DHT22;16845;48.670;9.000;2023-02-28T07:06:00;-1.30;99.90
30001;DHT22;16845;48.670;9.000;2023-02-28T07:08:30;-1.30;99.90
30001;DHT22;16845;48.670;9.000;2023-02-28T07:10:59;-1.30;99.90
30001;DHT22;16845;48.670;9.000;2023-02-28T07:13:27;-1.30;99.90
30001;DHT22;16845;48.670;9.000;2023-02-28T07:15:57;-1.30;99.90
30001;DHT22;16845;48.670;9.000;2023-02-28T07:18:25;-1.30;99.90
30001;DHT22;16845;48.670;9.000;2023-02-28T07:20:53;-1.20;99.90
30001;DHT22;16845;48.670;9.000;2023-02-28T07:23:21;-1.20;99.90
30001;DHT22;16845;48.670;9.000;2023-02-28T07:25:51;-1.10;99.90
30001;DHT22;16845;48.670;9.000;2023-02-28T07:28:19;-1.20;99.90
30001;DHT22;16845;48.670;9.000;2023-02-28T07:30:47;-1.20;99.90
30001;DHT22;16845;48.670;9.000;2023-02-28T07:33:15;-1.20;99.90
30001;DHT22;16845;48.670;9.000;2023-02-28T07:35:44;-1.20;99.90
30001;DHT22;16845;48.670;9.000;2023-02-28T07:38:12;-1.10;99.90
30001;DHT22;16845;48.670;9.000;2023-02-28T07:40:40;-1.10;99.90
30001;DHT22;16845;48.670;9.000;2023-02-28T07:43:09;-1.00;99.90
30001;DHT22;16845;48.670;9.000;2023-02-28T07:45:37;-1.00;99.90
30001;DHT22;16845;48.670;9.000;2023-02-28T07:48:05;-1.00;99.90
30001;DHT22;16845;48.670;9.000;2023-02-28T07:50:36;-0.90;99.90
30001;DHT22;16845;48.670;9.000;2023-02-28T07:53:04;-0.90;99.90
30001;DHT22;16845;48.670;9.000;2023-02-28T07:55:32;-0.80;99.90
30001;DHT22;16845;48.670;9.000;2023-02-28T07:58:00;-0.80;99.90
30001;DHT22;16845;48.670;9.000;2023-02-28T08:00:29;-0.90;99.90
30001;DHT22;16845;48.670;9.000;2023-02-28T08:02:58;-0.80;99.90
30001;DHT22;16845;48.670;9.000;2023-02-28T08:05:26;-0.70;99.90
30001;DHT22;16845;48.670;9.000;2023-02-28T08:07:54;-0.80;99.90
30001;DHT22;16845;48.670;9.000;2023-02-28T08:10:22;-0.80;99.90
30001;DHT22;16845;48.670;9.000;2023-02-28T08:12:50;-0.80;99.90
30001;DHT22;16845;48.670;9.000;2023-02-28T08:15:18;-0.80;99.90
30001;DHT22;16845;48.670;9.000;2023-02-28T08:17:48;-0.70;99.90
30001;DHT22;16845;48.670;9.000;2023-02-28T08:20:15;-0.70;99.90
30001;DHT22;16845;48.670;9.000;2023-02-28T08:22:44;-0.70;99.90
30001;DHT22;16845;48.670;9.000;2023-02-28T08:25:12;-0.60;99.90
30001;DHT22;16845;48.670;9.000;2023-02-28T08:27:39;-0.60;99.90
30001;DHT22;16845;48.670;9.000;2023-02-28T08:30:10;-0.60;99.90
30001;DHT22;16845;48.670;9.000;2023-02-28T08:32:38;-0.60;99.90
30001;DHT22;16845;48.670;9.000;2023-02-28T08:35:09;-0.50;99.90
30001;DHT22;16845;48.670;9.000;2023-02-28T08:37:37;-0.50;99.90
30001;DHT22;16845;48.670;9.000;2023-02-28T08:40:06;-0.40;99.90
30001;DHT22;16845;48.670;9.000;2023-02-28T08:42:34;-0.40;99.90
30001;DHT22;16845;48.670;9.000;2023-02-28T08:45:03;-0.30;99.90
30001;DHT22;16845;48.670;9.000;2023-02-28T08:47:31;-0.40;99.90
30001;DHT22;16845;48.670;9.000;2023-02-28T08:49:59;-0.40;99.90
30001;DHT22;16845;48.670;9.000;2023-02-28T08:52:28;-0.40;99.90
30001;DHT22;16845;48.670;9.000;2023-02-28T08:54:56;-0.30;99.90
30001;DHT22;16845;48.670;9.000;2023-02-28T08:57:24;-0.30;99.90
30001;DHT22;16845;48.670;9.000;2023-02-28T08:59:54;-0.30;99.90
30001;DHT22;16845;48.670;9.000;2023-02-28T09:02:22;-0.30;99.90
30001;DHT22;16845;48.670;9.000;2023-02-28T09:04:49;-0.20;99.90
30001;DHT22;16845;48.670;9.000;2023-02-28T09:07:17;-0.20;99.90
30001;DHT22;16845;48.670;9.000;2023-02-28T09:09:47;-0.10;99.90
30001;DHT22;16845;48.670;9.000;2023-02-28T09:12:21;-0.10;99.90
30001;DHT22;16845;48.670;9.000;2023-02-28T09:14:50;-0.10;99.90
30001;DHT22;16845;48.670;9.000;2023-02-28T09:17:18;0.00;99.90
30001;DHT22;16845;48.670;9.000;2023-02-28T09:19:47;0.00;99.90
30001;DHT22;16845;48.670;9.000;2023-02-28T09:22:15;0.10;99.90
30001;DHT22;16845;48.670;9.000;2023-02-28T09:24:43;0.10;99.90
30001;DHT22;16845;48.670;9.000;2023-02-28T09:27:13;0.00;99.90
30001;DHT22;16845;48.670;9.000;2023-02-28T09:29:41;0.10;99.90
30001;DHT22;16845;48.670;9.000;2023-02-28T09:32:09;0.10;99.90
30001;DHT22;16845;48.670;9.000;2023-02-28T09:34:37;0.20;99.90
30001;DHT22;16845;48.670;9.000;2023-02-28T09:37:05;0.20;99.90
30001;DHT22;16845;48.670;9.000;2023-02-28T09:39:33;0.20;99.90
30001;DHT22;16845;48.670;9.000;2023-02-28T09:42:02;0.30;99.90
30001;DHT22;16845;48.670;9.000;2023-02-28T09:44:35;0.30;99.90
30001;DHT22;16845;48.670;9.000;2023-02-28T09:47:10;0.30;99.90
30001;DHT22;16845;48.670;9.000;2023-02-28T09:49:42;0.30;99.90
30001;DHT22;16845;48.670;9.000;2023-02-28T09:52:16;0.30;99.90
30001;DHT22;16845;48.670;9.000;2023-02-28T09:54:46;0.30;99.90
30001;DHT22;16845;48.670;9.000;2023-02-28T09:57:17;0.40;99.90
30001;DHT22;16845;48.670;9.000;2023-02-28T09:59:58;0.40;99.90
30001;DHT22;16845;48.670;9.000;2023-02-28T10:03:04;0.40;99.90
30001;DHT22;16845;48.670;9.000;2023-02-28T10:05:38;0.40;99.90
30001;DHT22;16845;48.670;9.000;2023-02-28T10:08:13;0.40;99.90
30001;DHT22;16845;48.670;9.000;2023-02-28T10:10:44;0.40;99.90
30001;DHT22;16845;48.670;9.000;2023-02-28T10:13:21;0.50;99.90
30001;DHT22;16845;48.670;9.000;2023-02-28T10:15:56;0.50;99.90
30001;DHT22;16845;48.670;9.000;2023-02-28T10:18:30;0.30;99.90
30001;DHT22;16845;48.670;9.000;2023-02-28T10:20:59;0.40;99.90
30001;DHT22;16845;48.670;9.000;2023-02-28T10:23:31;0.60;99.90
30001;DHT22;16845;48.670;9.000;2023-02-28T10:26:03;0.80;99.90
30001;DHT22;16845;48.670;9.000;2023-02-28T10:28:33;1.00;99.90
30001;DHT22;16845;48.670;9.000;2023-02-28T10:31:02;1.00;99.90
30001;DHT22;16845;48.670;9.000;2023-02-28T10:33:32;0.90;99.90
30001;DHT22;16845;48.670;9.000;2023-02-28T10:36:01;1.00;99.90
30001;DHT22;16845;48.670;9.000;2023-02-28T10:38:34;1.10;99.90
30001;DHT22;16845;48.670;9.000;2023-02-28T10:41:05;1.10;99.90
30001;DHT22;16845;48.670;9.000;2023-02-28T10:43:33;1.20;99.90
30001;DHT22;16845;48.670;9.000;2023-02-28T10:46:09;1.30;99.90
30001;DHT22;16845;48.670;9.000;2023-02-28T10:48:44;1.40;99.90
30001;DHT22;16845;48.670;9.000;2023-02-28T10:51:13;1.60;99.90
30001;DHT22;16845;48.670;9.000;2023-02-28T10:53:49;1.70;99.90
30001;DHT22;16845;48.670;9.000;2023-02-28T10:56:28;1.80;99.90
30001;DHT22;16845;48.670;9.000;2023-02-28T10:58:59;1.80;99.90
30001;DHT22;16845;48.670;9.000;2023-02-28T11:01:37;2.10;99.90
30001;DHT22;16845;48.670;9.000;2023-02-28T11:04:32;2.00;99.90
30001;DHT22;16845;48.670;9.000;2023-02-28T11:07:05;2.00;99.90
30001;DHT22;16845;48.670;9.000;2023-02-28T11:09:35;2.20;99.90
30001;DHT22;16845;48.670;9.000;2023-02-28T11:12:07;2.30;99.90
30001;DHT22;16845;48.670;9.000;2023-02-28T11:14:46;2.20;99.90
30001;DHT22;16845;48.670;9.000;2023-02-28T11:17:20;2.10;99.90
30001;DHT22;16845;48.670;9.000;2023-02-28T11:19:51;2.10;99.90
30001;DHT22;16845;48.670;9.000;2023-02-28T11:22:23;2.30;99.90
30001;DHT22;16845;48.670;9.000;2023-02-28T11:24:57;2.30;99.90
30001;DHT22;16845;48.670;9.000;2023-02-28T11:27:44;2.50;99.90
30001;DHT22;16845;48.670;9.000;2023-02-28T11:30:34;2.70;99.90
30001;DHT22;16845;48.670;9.000;2023-02-28T11:33:22;2.60;99.90
30001;DHT22;16845;48.670;9.000;2023-02-28T11:35:53;2.70;99.90
30001;DHT22;16845;48.670;9.000;2023-02-28T11:38:23;2.60;99.90
30001;DHT22;16845;48.670;9.000;2023-02-28T11:41:05;2.40;99.90
30001;DHT22;16845;48.670;9.000;2023-02-28T11:43:45;2.60;99.90
30001;DHT22;16845;48.670;9.000;2023-02-28T11:46:26;2.80;99.90
30001;DHT22;16845;48.670;9.000;2023-02-28T11:49:07;2.90;99.90
30001;DHT22;16845;48.670;9.000;2023-02-28T11:51:48;3.40;99.90
30001;DHT22;16845;48.670;9.000;2023-02-28T11:54:50;3.90;99.90
30001;DHT22;16845;48.670;9.000;2023-02-28T11:57:32;5.00;99.90
30001;DHT22;16845;48.670;9.000;2023-02-28T12:00:25;6.30;99.90
30001;DHT22;16845;48.670;9.000;2023-02-28T12:03:03;6.80;99.90
30001;DHT22;16845;48.670;9.000;2023-02-28T12:05:44;7.20;99.90
30001;DHT22;16845;48.670;9.000;2023-02-28T12:08:25;7.00;99.60
30001;DHT22;16845;48.670;9.000;2023-02-28T12:11:03;7.80;98.90
30001;DHT22;16845;48.670;9.000;2023-02-28T12:13:41;8.40;98.10
30001;DHT22;16845;48.670;9.000;2023-02-28T12:16:17;7.80;98.10
30001;DHT22;16845;48.670;9.000;2023-02-28T12:19:06;8.60;97.20
30001;DHT22;16845;48.670;9.000;2023-02-28T12:21:55;9.70;95.90
30001;DHT22;16845;48.670;9.000;2023-02-28T12:24:45;10.60;94.20
30001;DHT22;16845;48.670;9.000;2023-02-28T12:27:15;10.70;93.20
30001;DHT22;16845;48.670;9.000;2023-02-28T12:29:49;9.90;92.70
30001;DHT22;16845;48.670;9.000;2023-02-28T12:32:21;9.10;93.70
30001;DHT22;16845;48.670;9.000;2023-02-28T12:34:53;8.00;94.20
30001;DHT22;16845;48.670;9.000;2023-02-28T12:37:27;7.40;95.30
30001;DHT22;16845;48.670;9.000;2023-02-28T12:40:00;7.30;95.50
30001;DHT22;16845;48.670;9.000;2023-02-28T12:42:34;7.30;95.30
30001;DHT22;16845;48.670;9.000;2023-02-28T12:45:10;7.80;95.60
30001;DHT22;16845;48.670;9.000;2023-02-28T12:47:38;8.40;94.90
30001;DHT22;16845;48.670;9.000;2023-02-28T12:50:11;7.80;94.80
30001;DHT22;16845;48.670;9.000;2023-02-28T12:52:48;7.60;95.00
30001;DHT22;16845;48.670;9.000;2023-02-28T12:55:23;7.40;95.20
30001;DHT22;16845;48.670;9.000;2023-02-28T12:58:02;7.10;95.70
30001;DHT22;16845;48.670;9.000;2023-02-28T13:00:36;6.90;95.80
30001;DHT22;16845;48.670;9.000;2023-02-28T13:03:32;7.40;96.20
30001;DHT22;16845;48.670;9.000;2023-02-28T13:06:30;8.60;94.70
30001;DHT22;16845;48.670;9.000;2023-02-28T13:09:04;9.10;94.20
30001;DHT22;16845;48.670;9.000;2023-02-28T13:11:39;9.40;93.00
30001;DHT22;16845;48.670;9.000;2023-02-28T13:14:20;8.70;93.70
30001;DHT22;16845;48.670;9.000;2023-02-28T13:16:54;8.80;93.50
30001;DHT22;16845;48.670;9.000;2023-02-28T13:19:25;9.80;92.40
30001;DHT22;16845;48.670;9.000;2023-02-28T13:21:54;9.80;92.10
30001;DHT22;16845;48.670;9.000;2023-02-28T13:24:44;9.00;92.70
30001;DHT22;16845;48.670;9.000;2023-02-28T13:27:32;9.60;92.40
30001;DHT22;16845;48.670;9.000;2023-02-28T13:30:02;10.40;91.50
30001;DHT22;16845;48.670;9.000;2023-02-28T13:32:54;10.20;91.10
30001;DHT22;16845;48.670;9.000;2023-02-28T13:35:44;12.20;89.70
30001;DHT22;16845;48.670;9.000;2023-02-28T13:38:22;13.20;87.90
30001;DHT22;16845;48.670;9.000;2023-02-28T13:40:50;14.10;83.50
30001;DHT22;16845;48.670;9.000;2023-02-28T13:43:18;14.20;80.60
30001;DHT22;16845;48.670;9.000;2023-02-28T13:46:11;13.50;78.20
30001;DHT22;16845;48.670;9.000;2023-02-28T13:48:41;11.60;82.50
30001;DHT22;16845;48.670;9.000;2023-02-28T13:51:38;9.90;85.20
30001;DHT22;16845;48.670;9.000;2023-02-28T13:54:20;10.00;88.30
30001;DHT22;16845;48.670;9.000;2023-02-28T13:57:01;10.60;86.00
30001;DHT22;16845;48.670;9.000;2023-02-28T13:59:38;10.70;86.40
30001;DHT22;16845;48.670;9.000;2023-02-28T14:02:43;10.60;84.60
30001;DHT22;16845;48.670;9.000;2023-02-28T14:05:15;9.70;86.10
30001;DHT22;16845;48.670;9.000;2023-02-28T14:07:46;9.70;87.10
30001;DHT22;16845;48.670;9.000;2023-02-28T14:10:23;9.20;87.80
30001;DHT22;16845;48.670;9.000;2023-02-28T14:12:55;8.60;89.50
30001;DHT22;16845;48.670;9.000;2023-02-28T14:15:46;8.80;89.40
30001;DHT22;16845;48.670;9.000;2023-02-28T14:18:19;8.10;90.40
30001;DHT22;16845;48.670;9.000;2023-02-28T14:20:55;7.50;91.00
30001;DHT22;16845;48.670;9.000;2023-02-28T14:23:56;7.30;91.00
30001;DHT22;16845;48.670;9.000;2023-02-28T14:26:45;7.20;91.80
30001;DHT22;16845;48.670;9.000;2023-02-28T14:29:34;6.80;92.00
30001;DHT22;16845;48.670;9.000;2023-02-28T14:32:13;6.70;92.40
30001;DHT22;16845;48.670;9.000;2023-02-28T14:34:42;6.50;92.60
30001;DHT22;16845;48.670;9.000;2023-02-28T14:37:23;6.70;93.00
30001;DHT22;16845;48.670;9.000;2023-02-28T14:39:53;6.60;92.70
30001;DHT22;16845;48.670;9.000;2023-02-28T14:42:29;6.80;92.70
30001;DHT22;16845;48.670;9.000;2023-02-28T14:44:57;6.80;92.60
30001;DHT22;16845;48.670;9.000;2023-02-28T14:47:28;7.00;92.50
30001;DHT22;16845;48.670;9.000;2023-02-28T14:49:58;7.10;92.60
30001;DHT22;16845;48.670;9.000;2023-02-28T14:52:29;7.00;92.70
30001;DHT22;16845;48.670;9.000;2023-02-28T14:55:00;6.90;92.60
30001;DHT22;16845;48.670;9.000;2023-02-28T14:57:30;6.50;92.90
30001;DHT22;16845;48.670;9.000;2023-02-28T15:00:00;6.30;93.10
30001;DHT22;16845;48.670;9.000;2023-02-28T15:02:33;6.30;93.20
30001;DHT22;16845;48.670;9.000;2023-02-28T15:05:23;5.80;93.70
30001;DHT22;16845;48.670;9.000;2023-02-28T15:08:09;5.70;94.10
30001;DHT22;16845;48.670;9.000;2023-02-28T15:10:39;5.80;94.30
30001;DHT22;16845;48.670;9.000;2023-02-28T15:13:12;5.90;94.10
30001;DHT22;16845;48.670;9.000;2023-02-28T15:15:44;5.90;94.20
30001;DHT22;16845;48.670;9.000;2023-02-28T15:18:32;5.90;94.20
30001;DHT22;16845;48.670;9.000;2023-02-28T15:21:03;5.90;94.40
30001;DHT22;16845;48.670;9.000;2023-02-28T15:23:34;5.70;94.50
30001;DHT22;16845;48.670;9.000;2023-02-28T15:26:04;5.50;94.40
30001;DHT22;16845;48.670;9.000;2023-02-28T15:28:33;5.50;95.30
30001;DHT22;16845;48.670;9.000;2023-02-28T15:31:03;5.60;94.70
30001;DHT22;16845;48.670;9.000;2023-02-28T15:33:33;5.30;95.00
30001;DHT22;16845;48.670;9.000;2023-02-28T15:36:12;5.10;95.40
30001;DHT22;16845;48.670;9.000;2023-02-28T15:38:42;5.00;95.60
30001;DHT22;16845;48.670;9.000;2023-02-28T15:41:24;5.20;95.70
30001;DHT22;16845;48.670;9.000;2023-02-28T15:44:14;5.20;95.60
30001;DHT22;16845;48.670;9.000;2023-02-28T15:46:44;5.40;95.40
30001;DHT22;16845;48.670;9.000;2023-02-28T15:49:20;5.50;95.60
30001;DHT22;16845;48.670;9.000;2023-02-28T15:51:50;5.50;95.50
30001;DHT22;16845;48.670;9.000;2023-02-28T15:54:23;5.40;95.70
30001;DHT22;16845;48.670;9.000;2023-02-28T15:56:56;5.30;95.60
30001;DHT22;16845;48.670;9.000;2023-02-28T15:59:27;5.10;95.80
30001;DHT22;16845;48.670;9.000;2023-02-28T16:02:04;4.90;95.90
30001;DHT22;16845;48.670;9.000;2023-02-28T16:04:55;4.90;96.20
30001;DHT22;16845;48.670;9.000;2023-02-28T16:07:23;4.80;96.50
30001;DHT22;16845;48.670;9.000;2023-02-28T16:09:53;4.70;96.50
30001;DHT22;16845;48.670;9.000;2023-02-28T16:12:25;4.60;96.90
30001;DHT22;16845;48.670;9.000;2023-02-28T16:14:54;4.50;96.90